DATCR LDDU-ETNL
Flight info
| Callsign | DATCR |
|---|---|
| Flight time | N/A |
| Altitude | 40000 |
| Route | DCT KLP DCT 43N018E DCT MSR DCT VRL DCT SIRMI DCT SONIK DCT DEPET DCT KOREX DCT RASTU DCT TNJ DCT DARZA DCT DOL DCT KFT DCT 47N014E DCT SBG DCT BADIT DCT BIBAG/N0455F410 DCT BAMTA/N0454F400 DCT RDG/N0455F410 DCT EXUSI DCT LULAR/N0454F400 DCT AGNAV DCT TIPAM/N0455F410 DCT OKG/N0454F400 DCT PEROX DCT SKZ DCT DESAR DCT MAG/N0457F410 DCT BUREL DCT BAPOV DCT BIRMO DCT INDOK DCT |
| Aircraft | CL60/M-SBDE1E2E3FGHIJ1J4J5J7M3RWXYZ/LB1V1D1 |
Departure
| Time | 2026-04-27 15:42 |
|---|---|
| Airport | Dubrovnik Ruđer Bošković Airport (LDDU) |
Arrival
| Time | N/A |
|---|---|
| Airport | Rostock-Laage Airport (ETNL) |
| Time | Latitude | Longitude | Altitude | Speed | Heading |
|---|---|---|---|---|---|
| 2026-04-27 15:21 | 42.55804 | 18.27048 | 509 ft | 0 kts | 23° |
| 2026-04-27 15:38 | 42.55819 | 18.27057 | 509 ft | 7 kts | 25° |
| 2026-04-27 15:38 | 42.55826 | 18.27133 | 508 ft | 12 kts | 117° |
| 2026-04-27 15:39 | 42.55776 | 18.27263 | 505 ft | 18 kts | 118° |
| 2026-04-27 15:39 | 42.55707 | 18.27430 | 502 ft | 21 kts | 118° |
| 2026-04-27 15:39 | 42.55654 | 18.27563 | 499 ft | 16 kts | 118° |
| 2026-04-27 15:39 | 42.55602 | 18.27696 | 497 ft | 15 kts | 118° |
| 2026-04-27 15:40 | 42.55545 | 18.27841 | 496 ft | 19 kts | 118° |
| 2026-04-27 15:40 | 42.55484 | 18.27994 | 494 ft | 16 kts | 117° |
| 2026-04-27 15:40 | 42.55477 | 18.28122 | 493 ft | 13 kts | 42° |
| 2026-04-27 15:40 | 42.55575 | 18.28180 | 492 ft | 16 kts | 353° |
| 2026-04-27 15:41 | 42.55644 | 18.28064 | 493 ft | 16 kts | 297° |
| 2026-04-27 15:41 | 42.55730 | 18.27846 | 495 ft | 53 kts | 298° |
| 2026-04-27 15:41 | 42.56033 | 18.27083 | 511 ft | 125 kts | 297° |
| 2026-04-27 15:41 | 42.56500 | 18.25871 | 798 ft | 156 kts | 295° |
| 2026-04-27 15:42 | 42.57024 | 18.24524 | 1385 ft | 168 kts | 298° |
| 2026-04-27 15:42 | 42.57579 | 18.23128 | 2090 ft | 174 kts | 299° |
| 2026-04-27 15:42 | 42.58164 | 18.21644 | 2647 ft | 192 kts | 299° |
| 2026-04-27 15:42 | 42.58879 | 18.19837 | 2771 ft | 237 kts | 299° |
| 2026-04-27 15:43 | 42.59690 | 18.17794 | 3414 ft | 254 kts | 299° |
| 2026-04-27 15:43 | 42.60546 | 18.15643 | 4228 ft | 263 kts | 298° |
| 2026-04-27 15:43 | 42.61432 | 18.13428 | 5178 ft | 276 kts | 299° |
| 2026-04-27 15:43 | 42.62334 | 18.11175 | 6513 ft | 279 kts | 299° |
| 2026-04-27 15:44 | 42.63258 | 18.08905 | 7875 ft | 280 kts | 303° |
| 2026-04-27 15:44 | 42.64561 | 18.07008 | 9195 ft | 282 kts | 327° |
| 2026-04-27 15:44 | 42.66344 | 18.06012 | 10445 ft | 285 kts | 346° |
| 2026-04-27 15:44 | 42.68250 | 18.05377 | 11656 ft | 290 kts | 346° |
| 2026-04-27 15:45 | 42.70217 | 18.04714 | 12862 ft | 295 kts | 346° |
| 2026-04-27 15:45 | 42.72203 | 18.04041 | 14011 ft | 300 kts | 346° |
| 2026-04-27 15:45 | 42.74206 | 18.03362 | 15096 ft | 304 kts | 345° |
| 2026-04-27 15:45 | 42.76266 | 18.02662 | 16152 ft | 309 kts | 345° |
| 2026-04-27 15:46 | 42.78325 | 18.01963 | 17169 ft | 313 kts | 345° |
| 2026-04-27 15:46 | 42.80441 | 18.01243 | 18143 ft | 318 kts | 345° |
| 2026-04-27 15:46 | 42.82597 | 18.00510 | 19065 ft | 322 kts | 345° |
| 2026-04-27 15:46 | 42.84766 | 17.99772 | 19945 ft | 327 kts | 345° |
| 2026-04-27 15:47 | 42.86992 | 17.99013 | 20822 ft | 331 kts | 344° |
| 2026-04-27 15:47 | 42.89231 | 17.98250 | 21678 ft | 335 kts | 344° |
| 2026-04-27 15:47 | 42.91507 | 17.97473 | 22507 ft | 338 kts | 343° |
| 2026-04-27 15:47 | 42.93781 | 17.96695 | 23264 ft | 343 kts | 343° |